Time;durP1;ratioP1;P1;durP2;ratioP2;P2;SDS_P1;SDS_P2;PMS_P1;PMS_P2;Temp;Humidity;BMP_temperature;BMP_pressure;BME280_temperature;BME280_humidity;BME280_pressure;Samples;Min_cycle;Max_cycle;Signal;HPM_P1;HPM_P2
2021/12/02 00:00:58;;;;;;;9.83;8.85;;;;;;;4.35;83.42;97358.86;1658540;85;20970;-69
2021/12/02 00:03:25;;;;;;;11.15;9.23;;;;;;;4.39;83.29;97352.75;1655552;86;21873;-69
2021/12/02 00:05:53;;;;;;;10.80;9.70;;;;;;;4.38;82.79;97342.71;1625805;87;21075;-69
2021/12/02 00:08:20;;;;;;;10.78;9.78;;;;;;;4.40;83.17;97353.08;1626018;88;21510;-69
2021/12/02 00:10:46;;;;;;;10.50;9.45;;;;;;;4.36;82.85;97364.46;1629975;86;21002;-69
2021/12/02 00:13:14;;;;;;;9.28;8.28;;;;;;;4.48;82.71;97342.45;1664106;85;21024;-69
2021/12/02 00:15:52;;;;;;;10.32;9.30;;;;;;;4.48;82.46;97339.81;1662977;85;21033;-69
2021/12/02 00:23:37;;;;;;;;;;;;;;;4.59;81.55;97331.95;1658043;85;21003;-69
2021/12/02 00:26:11;;;;;;;8.48;7.58;;;;;;;4.63;80.83;97335.34;1629470;87;20433;-69
2021/12/02 00:28:39;;;;;;;9.80;8.53;;;;;;;4.61;79.82;97339.98;1652215;85;21101;-69
2021/12/02 00:31:13;;;;;;;10.25;8.48;;;;;;;4.58;79.61;97326.36;1664152;85;21172;-69
2021/12/02 00:33:39;;;;;;;9.10;8.20;;;;;;;4.59;79.33;97329.31;1631397;86;20959;-69
2021/12/02 00:36:07;;;;;;;8.70;7.28;;;;;;;4.56;78.83;97316.52;1659653;85;21489;-69
2021/12/02 00:38:33;;;;;;;7.97;7.17;;;;;;;4.60;78.87;97317.77;1659325;85;21012;-69
2021/12/02 00:40:59;;;;;;;9.23;8.33;;;;;;;4.59;78.82;97301.14;1658750;85;21113;-69
2021/12/02 00:43:26;;;;;;;8.30;7.50;;;;;;;4.60;78.67;97292.25;1651173;85;20976;-69
2021/12/02 00:45:53;;;;;;;9.55;7.80;;;;;;;4.53;79.70;97320.33;1655427;86;21054;-69
2021/12/02 00:48:19;;;;;;;9.28;7.47;;;;;;;4.55;80.55;97295.12;1658191;85;20912;-69
2021/12/02 00:50:48;;;;;;;8.13;7.30;;;;;;;4.57;80.64;97285.20;1654436;85;21595;-69
2021/12/02 00:53:19;;;;;;;8.43;7.53;;;;;;;4.58;80.17;97298.20;1627723;86;21809;-69
2021/12/02 00:55:46;;;;;;;8.43;7.62;;;;;;;4.58;79.51;97287.67;1624022;87;20999;-69
2021/12/02 00:58:15;;;;;;;8.73;7.62;;;;;;;4.59;78.79;97291.12;1659369;85;20939;-68
2021/12/02 01:00:41;;;;;;;8.50;7.70;;;;;;;4.57;77.70;97291.30;1654913;85;21063;-68
2021/12/02 01:03:07;;;;;;;10.08;7.78;;;;;;;4.55;77.54;97285.90;1659501;86;21026;-68
2021/12/02 01:05:33;;;;;;;9.78;7.00;;;;;;;4.49;77.58;97287.95;1656937;85;21829;-68
2021/12/02 01:08:01;;;;;;;9.20;7.20;;;;;;;4.52;77.20;97275.73;1658805;85;21026;-69
2021/12/02 01:10:27;;;;;;;7.50;6.70;;;;;;;4.52;77.20;97294.98;1659113;85;21074;-69
2021/12/02 01:12:54;;;;;;;8.05;7.25;;;;;;;4.53;76.92;97272.94;1658057;85;21115;-69
2021/12/02 01:15:22;;;;;;;7.42;6.72;;;;;;;4.57;76.71;97268.09;1625079;87;20999;-69
2021/12/02 01:17:48;;;;;;;9.00;7.22;;;;;;;4.55;76.58;97285.90;1623670;86;21156;-70
2021/12/02 01:20:14;;;;;;;8.58;7.50;;;;;;;4.57;76.40;97268.91;1625449;88;20932;-68
2021/12/02 01:22:41;;;;;;;9.43;7.15;;;;;;;4.63;76.14;97252.38;1599373;88;21635;-69
2021/12/02 01:25:08;;;;;;;8.15;7.35;;;;;;;4.64;75.93;97242.66;1657896;85;21099;-69
2021/12/02 01:27:35;;;;;;;7.47;6.78;;;;;;;4.65;75.78;97258.27;1659544;85;20954;-70
2021/12/02 01:30:05;;;;;;;8.40;7.60;;;;;;;4.70;75.48;97251.12;1657676;85;22037;-70
2021/12/02 01:32:34;;;;;;;8.35;6.87;;;;;;;4.72;75.37;97251.24;1659128;85;21081;-68
2021/12/02 01:35:02;;;;;;;9.33;7.10;;;;;;;4.77;75.12;97245.44;1659471;86;20919;-68
2021/12/02 01:37:29;;;;;;;7.83;6.83;;;;;;;4.77;74.85;97250.70;1641436;86;20938;-68
2021/12/02 01:39:56;;;;;;;7.78;6.97;;;;;;;4.73;74.62;97260.79;1637277;86;20984;-68
2021/12/02 01:42:24;;;;;;;8.05;7.25;;;;;;;4.69;74.61;97238.97;1639552;86;23292;-68
2021/12/02 01:44:53;;;;;;;7.10;6.40;;;;;;;4.67;74.69;97228.60;1633371;86;21582;-68
2021/12/02 01:47:25;;;;;;;7.65;6.90;;;;;;;4.71;74.70;97230.38;1639551;86;20943;-68
2021/12/02 01:49:56;;;;;;;7.55;6.62;;;;;;;4.75;74.54;97221.90;1633338;86;21048;-69
2021/12/02 01:52:31;;;;;;;7.83;6.90;;;;;;;4.76;74.50;97235.89;1633103;86;20954;-69
2021/12/02 01:55:13;;;;;;;9.20;7.35;;;;;;;4.84;74.44;97226.05;1607053;88;21196;-69
2021/12/02 01:57:43;;;;;;;8.10;7.10;;;;;;;4.83;74.22;97232.31;1599758;88;20965;-70
2021/12/02 02:00:20;;;;;;;7.87;7.08;;;;;;;4.87;74.17;97220.41;1606437;88;21078;-68
2021/12/02 02:02:47;;;;;;;9.90;6.70;;;;;;;4.93;74.06;97217.00;1600583;88;20919;-68
2021/12/02 02:05:16;;;;;;;10.30;7.75;;;;;;;4.95;73.94;97217.63;1594950;89;21029;-68
2021/12/02 02:08:05;;;;;;;8.00;7.10;;;;;;;4.96;73.86;97231.12;1638579;86;21172;-68
2021/12/02 02:10:34;;;;;;;7.90;6.65;;;;;;;4.95;73.83;97216.30;1625036;86;22271;-70
2021/12/02 02:13:06;;;;;;;6.55;5.85;;;;;;;4.95;73.88;97220.78;1640215;86;21180;-70
2021/12/02 02:15:30;;;;;;;9.13;6.65;;;;;;;5.00;73.94;97212.59;1635807;86;21534;-70
2021/12/02 02:18:02;;;;;;;9.95;6.62;;;;;;;5.05;73.93;97211.23;1612487;88;21065;-70
2021/12/02 02:20:42;;;;;;;7.62;6.20;;;;;;;5.12;73.92;97212.09;1604764;88;21291;-70
2021/12/02 02:23:11;;;;;;;7.70;5.90;;;;;;;5.15;74.10;97206.44;1641918;86;21529;-69
2021/12/02 02:25:37;;;;;;;7.33;6.55;;;;;;;5.18;74.17;97208.20;1633064;86;21763;-69
2021/12/02 02:28:04;;;;;;;7.53;6.67;;;;;;;5.24;74.20;97211.37;1606948;88;21012;-68
2021/12/02 02:30:30;;;;;;;8.60;6.90;;;;;;;5.32;74.08;97206.48;1579641;89;21545;-68
2021/12/02 02:32:57;;;;;;;8.70;6.70;;;;;;;5.37;74.05;97193.54;1598894;88;21190;-68
2021/12/02 02:35:24;;;;;;;8.45;6.30;;;;;;;5.48;73.67;97190.34;1606291;88;21715;-68
2021/12/02 02:37:50;;;;;;;10.23;6.37;;;;;;;5.51;73.60;97189.97;1664159;86;20973;-68
2021/12/02 02:40:17;;;;;;;7.65;6.22;;;;;;;5.52;73.70;97181.87;1662267;86;22545;-70
2021/12/02 02:42:48;;;;;;;8.95;6.60;;;;;;;5.58;73.48;97182.40;1666044;84;21003;-68
2021/12/02 02:45:16;;;;;;;7.83;6.33;;;;;;;5.63;73.29;97177.35;1664075;85;21162;-69
2021/12/02 02:47:42;;;;;;;9.73;6.83;;;;;;;5.66;73.28;97174.04;1663807;85;20956;-68
2021/12/02 02:50:13;;;;;;;7.33;6.60;;;;;;;5.69;73.16;97166.53;1663760;86;21035;-69
2021/12/02 02:52:40;;;;;;;11.50;7.00;;;;;;;5.70;73.10;97170.81;1663543;85;20984;-69
2021/12/02 02:55:08;;;;;;;7.62;6.05;;;;;;;5.73;72.84;97160.38;1663064;85;21079;-69
2021/12/02 02:57:53;;;;;;;8.90;6.83;;;;;;;5.70;72.67;97168.17;1663921;85;21168;-69
2021/12/02 03:00:14;;;;;;;7.55;6.45;;;;;;;5.64;72.54;97166.30;1661735;86;21023;-69
2021/12/02 03:03:19;;;;;;;10.10;6.62;;;;;;;5.67;72.58;97161.96;1661925;85;21022;-69
2021/12/02 03:05:33;;;;;;;6.33;5.72;;;;;;;5.68;72.39;97160.14;1634040;86;21007;-69
2021/12/02 03:07:59;;;;;;;7.58;6.30;;;;;;;5.66;72.46;97176.68;1663513;85;21671;-69
2021/12/02 03:10:46;;;;;;;8.23;6.67;;;;;;;5.63;72.36;97172.61;1631735;86;21746;-69
2021/12/02 03:18:25;;;;;;;8.03;6.75;;;;;;;5.57;73.00;97168.10;1660552;85;21624;-69
2021/12/02 03:20:51;;;;;;;8.48;6.30;;;;;;;5.52;72.59;97171.33;1664451;85;20985;-69
2021/12/02 03:23:17;;;;;;;7.92;6.15;;;;;;;5.53;72.50;97166.84;1664184;86;21178;-69
2021/12/02 03:25:46;;;;;;;8.70;6.53;;;;;;;5.52;72.43;97161.27;1660235;85;20960;-69
2021/12/02 03:28:12;;;;;;;9.10;6.70;;;;;;;5.52;72.50;97158.64;1651580;85;21070;-69
2021/12/02 03:30:38;;;;;;;8.20;6.83;;;;;;;5.56;72.44;97161.19;1626669;86;21043;-69
2021/12/02 03:33:05;;;;;;;7.58;6.78;;;;;;;5.59;72.24;97174.81;1664036;85;21546;-69
2021/12/02 03:35:31;;;;;;;7.45;6.47;;;;;;;5.56;72.30;97146.67;1634070;86;21136;-69
2021/12/02 03:37:57;;;;;;;9.63;7.10;;;;;;;5.54;72.36;97153.48;1626117;87;21033;-69
2021/12/02 03:40:24;;;;;;;8.18;7.03;;;;;;;5.49;72.49;97145.34;1655557;85;20956;-69
2021/12/02 03:42:52;;;;;;;8.70;7.70;;;;;;;5.45;72.63;97134.85;1657530;85;20985;-69
2021/12/02 03:45:22;;;;;;;8.58;7.35;;;;;;;5.44;72.66;97142.97;1626460;86;21478;-69
2021/12/02 03:47:48;;;;;;;7.22;6.47;;;;;;;5.42;72.85;97138.41;1600298;88;21166;-69
2021/12/02 03:50:14;;;;;;;8.73;6.72;;;;;;;5.43;72.97;97133.42;1625875;87;21094;-69
2021/12/02 03:52:41;;;;;;;7.25;5.95;;;;;;;5.49;73.07;97133.97;1627208;88;21007;-69
2021/12/02 03:55:08;;;;;;;6.75;6.05;;;;;;;5.56;73.11;97140.91;1599037;88;21527;-69
2021/12/02 03:57:34;;;;;;;7.85;6.17;;;;;;;5.60;73.20;97136.86;1657750;85;21093;-69
2021/12/02 04:00:01;;;;;;;12.43;6.70;;;;;;;5.64;73.13;97129.38;1657773;85;21451;-69
2021/12/02 04:02:28;;;;;;;6.85;6.15;;;;;;;5.69;73.00;97127.46;1656208;85;21041;-69
2021/12/02 04:04:56;;;;;;;7.87;6.15;;;;;;;5.71;73.02;97127.57;1656844;85;21103;-69
2021/12/02 04:07:25;;;;;;;7.97;6.58;;;;;;;5.74;72.97;97136.42;1658823;86;20968;-69
2021/12/02 04:09:52;;;;;;;7.67;6.87;;;;;;;5.77;72.88;97141.80;1657419;85;20981;-69
2021/12/02 04:12:27;;;;;;;7.08;5.92;;;;;;;5.78;72.85;97144.27;1657787;85;21135;-69
2021/12/02 04:14:57;;;;;;;10.55;6.67;;;;;;;5.81;72.74;97137.28;1654697;85;20935;-69
2021/12/02 04:17:28;;;;;;;8.30;6.67;;;;;;;5.82;72.82;97131.48;1652598;86;21027;-69
2021/12/02 04:19:46;;;;;;;8.60;6.65;;;;;;;5.85;72.77;97153.05;1658182;85;20938;-69
2021/12/02 04:22:13;;;;;;;9.25;6.17;;;;;;;5.89;72.72;97148.98;1659292;85;21069;-69
2021/12/02 04:24:39;;;;;;;8.13;6.08;;;;;;;5.92;72.65;97142.50;1659184;84;21178;-69
2021/12/02 04:27:05;;;;;;;10.58;6.40;;;;;;;5.98;72.44;97144.37;1659592;84;21004;-69
2021/12/02 04:29:32;;;;;;;7.25;5.83;;;;;;;6.05;72.28;97148.66;1659156;85;20962;-70
2021/12/02 04:31:58;;;;;;;6.92;5.85;;;;;;;6.05;72.27;97142.55;1666395;85;20972;-69
2021/12/02 04:34:24;;;;;;;8.60;5.55;;;;;;;6.09;72.23;97151.22;1657802;85;21502;-69
2021/12/02 04:36:51;;;;;;;6.25;5.35;;;;;;;6.15;72.10;97149.62;1658472;85;21131;-69
2021/12/02 04:39:19;;;;;;;8.08;6.12;;;;;;;6.17;72.12;97144.45;1653669;85;21470;-69
2021/12/02 04:41:45;;;;;;;6.58;5.30;;;;;;;6.21;71.99;97152.27;1659100;85;21004;-69
2021/12/02 04:44:18;;;;;;;7.37;5.28;;;;;;;6.25;71.89;97139.99;1657831;85;21067;-69
2021/12/02 04:46:42;;;;;;;5.67;4.80;;;;;;;6.27;71.81;97141.42;1659018;85;21149;-69
2021/12/02 04:49:08;;;;;;;8.00;5.53;;;;;;;6.31;71.68;97139.20;1658939;85;21113;-69
2021/12/02 04:51:35;;;;;;;6.12;5.28;;;;;;;6.32;71.65;97142.95;1658937;85;21518;-69
2021/12/02 04:54:01;;;;;;;7.50;5.42;;;;;;;6.36;71.63;97146.80;1658763;85;21066;-69
2021/12/02 04:56:28;;;;;;;6.08;5.47;;;;;;;6.38;71.55;97142.66;1659094;85;21019;-69
2021/12/02 04:58:54;;;;;;;8.23;5.47;;;;;;;6.41;71.45;97140.45;1657679;85;21041;-69
2021/12/02 05:01:21;;;;;;;6.70;5.60;;;;;;;6.45;71.33;97139.52;1659788;86;21163;-69
2021/12/02 05:03:49;;;;;;;7.42;6.50;;;;;;;6.46;71.28;97138.52;1659337;85;20957;-69
2021/12/02 05:06:15;;;;;;;9.35;7.37;;;;;;;6.48;71.24;97141.77;1659368;85;21014;-69
2021/12/02 05:08:41;;;;;;;10.70;7.12;;;;;;;6.50;71.23;97145.02;1654360;85;21604;-67
2021/12/02 05:11:08;;;;;;;10.63;6.87;;;;;;;6.48;71.24;97147.05;1659233;85;21042;-69
2021/12/02 05:13:34;;;;;;;11.55;6.33;;;;;;;6.50;71.31;97149.80;1658311;85;21170;-69
2021/12/02 05:16:02;;;;;;;7.97;5.85;;;;;;;6.51;71.30;97150.61;1659708;86;20999;-69
2021/12/02 05:18:29;;;;;;;11.05;6.62;;;;;;;6.55;71.32;97150.50;1657533;84;20984;-69
2021/12/02 05:20:56;;;;;;;9.50;6.92;;;;;;;6.59;71.31;97147.78;1657794;85;21475;-69
2021/12/02 05:23:23;;;;;;;7.55;5.65;;;;;;;6.60;71.23;97146.75;1653576;85;21010;-69
2021/12/02 05:25:49;;;;;;;9.25;5.50;;;;;;;6.62;71.21;97145.53;1658307;85;21168;-69
2021/12/02 05:28:17;;;;;;;5.85;5.17;;;;;;;6.64;71.24;97138.75;1655828;85;20964;-69
2021/12/02 05:30:46;;;;;;;6.72;4.58;;;;;;;6.67;71.28;97146.27;1653990;86;21011;-69
2021/12/02 05:33:15;;;;;;;6.28;5.45;;;;;;;6.69;71.34;97153.48;1658654;85;21070;-69
2021/12/02 05:35:42;;;;;;;7.53;5.65;;;;;;;6.71;71.33;97150.13;1659488;85;20999;-67
2021/12/02 05:38:08;;;;;;;7.62;4.92;;;;;;;6.76;71.32;97149.02;1660162;85;21182;-67
2021/12/02 05:40:35;;;;;;;7.12;5.42;;;;;;;6.78;71.18;97155.72;1658988;85;21015;-70
2021/12/02 05:43:01;;;;;;;6.33;4.85;;;;;;;6.79;71.19;97152.07;1659107;85;21017;-72
2021/12/02 05:45:28;;;;;;;6.78;4.72;;;;;;;6.79;71.27;97157.36;1659079;85;21065;-68
2021/12/02 05:47:55;;;;;;;7.10;5.75;;;;;;;6.84;71.27;97156.23;1659378;85;21071;-69
2021/12/02 05:50:21;;;;;;;8.70;5.15;;;;;;;6.86;71.21;97153.38;1658788;85;21173;-68
2021/12/02 05:52:48;;;;;;;6.12;5.15;;;;;;;6.93;71.13;97154.22;1656857;86;21012;-69
2021/12/02 05:55:14;;;;;;;5.87;5.00;;;;;;;6.93;71.08;97160.83;1658771;85;21521;-68
2021/12/02 05:57:40;;;;;;;7.05;5.20;;;;;;;6.96;71.01;97159.08;1627839;87;21040;-67
2021/12/02 06:00:08;;;;;;;5.67;4.78;;;;;;;6.95;71.00;97157.97;1659088;85;21676;-66
2021/12/02 06:02:40;;;;;;;6.83;5.00;;;;;;;6.94;71.02;97158.47;1659808;85;21176;-66
2021/12/02 06:05:09;;;;;;;9.85;6.22;;;;;;;6.96;71.02;97164.89;1659281;85;20970;-70
2021/12/02 06:07:37;;;;;;;5.95;4.60;;;;;;;6.97;71.00;97165.18;1657845;85;22274;-67
2021/12/02 06:10:05;;;;;;;5.87;4.45;;;;;;;6.96;70.99;97172.29;1656617;86;21021;-67
2021/12/02 06:12:32;;;;;;;5.97;4.78;;;;;;;7.00;70.82;97170.06;1657466;85;20996;-67
2021/12/02 06:14:58;;;;;;;9.78;5.75;;;;;;;7.02;70.78;97164.06;1657820;85;21988;-65
2021/12/02 06:17:25;;;;;;;7.37;4.95;;;;;;;7.06;70.66;97165.30;1661186;85;20960;-68
2021/12/02 06:19:51;;;;;;;8.10;5.75;;;;;;;7.07;70.53;97161.62;1659399;85;21347;-75
2021/12/02 06:22:18;;;;;;;7.80;6.40;;;;;;;7.09;70.42;97172.30;1623555;87;21495;-70
2021/12/02 06:24:53;;;;;;;9.10;7.45;;;;;;;7.10;70.32;97172.61;1619351;88;20967;-70
2021/12/02 06:27:15;;;;;;;9.95;8.30;;;;;;;7.09;70.36;97170.97;1658872;85;21172;-73
2021/12/02 06:29:41;;;;;;;8.68;6.35;;;;;;;7.09;70.28;97171.50;1659194;85;20958;-70
2021/12/02 06:32:08;;;;;;;7.15;5.75;;;;;;;7.06;70.39;97175.37;1627531;87;20970;-71
2021/12/02 06:34:35;;;;;;;5.55;4.70;;;;;;;7.09;70.38;97168.86;1624512;87;21119;-71
2021/12/02 06:37:02;;;;;;;6.20;5.12;;;;;;;7.10;70.34;97177.90;1625578;87;21094;-70
2021/12/02 06:39:28;;;;;;;6.45;5.00;;;;;;;7.13;70.30;97181.46;1618020;86;21591;-71
2021/12/02 06:41:55;;;;;;;7.10;5.60;;;;;;;7.19;70.16;97182.48;1659900;84;20919;-64
2021/12/02 06:44:22;;;;;;;8.00;5.87;;;;;;;7.22;70.10;97192.66;1659204;84;21061;-75
2021/12/02 06:46:48;;;;;;;8.35;5.85;;;;;;;7.23;70.05;97183.69;1657627;84;20980;-74
2021/12/02 06:49:14;;;;;;;7.20;6.28;;;;;;;7.25;70.00;97193.04;1657206;85;20966;-64
2021/12/02 06:51:41;;;;;;;6.97;5.90;;;;;;;7.26;69.96;97184.10;1658508;85;22152;-70
2021/12/02 06:54:07;;;;;;;7.58;6.00;;;;;;;7.27;69.95;97192.32;1659471;85;20962;-69
2021/12/02 06:56:34;;;;;;;6.35;5.42;;;;;;;7.28;69.96;97192.64;1659205;85;21571;-66
2021/12/02 06:59:00;;;;;;;7.67;5.25;;;;;;;7.33;69.95;97196.80;1658702;85;20962;-66
2021/12/02 07:01:26;;;;;;;6.58;5.08;;;;;;;7.33;70.04;97201.27;1659355;85;20921;-64
2021/12/02 07:03:52;;;;;;;6.45;5.60;;;;;;;7.36;69.97;97204.84;1659147;86;21168;-63
2021/12/02 07:06:19;;;;;;;7.97;5.30;;;;;;;7.42;69.96;97201.38;1651332;85;20912;-63
2021/12/02 07:08:45;;;;;;;5.70;5.05;;;;;;;7.45;69.99;97198.33;1625592;87;20972;-65
2021/12/02 07:11:11;;;;;;;6.17;5.08;;;;;;;7.45;70.04;97199.66;1599500;88;21492;-63
2021/12/02 07:13:39;;;;;;;5.53;4.50;;;;;;;7.51;70.08;97202.78;1659468;85;20979;-67
2021/12/02 07:16:06;;;;;;;5.55;4.80;;;;;;;7.61;69.96;97208.49;1659311;85;21908;-67
2021/12/02 07:18:39;;;;;;;6.62;5.25;;;;;;;7.67;69.79;97205.50;1657637;85;21534;-65
2021/12/02 07:21:04;;;;;;;5.97;5.17;;;;;;;7.73;69.69;97193.59;1661658;85;21550;-66
2021/12/02 07:23:31;;;;;;;6.33;5.12;;;;;;;7.81;69.51;97201.82;1620063;87;21110;-63
2021/12/02 07:25:57;;;;;;;7.22;5.00;;;;;;;7.82;69.45;97197.63;1658698;85;20911;-65
2021/12/02 07:28:24;;;;;;;5.33;4.83;;;;;;;7.89;69.33;97197.63;1659477;84;21183;-65
2021/12/02 07:30:54;;;;;;;6.78;4.47;;;;;;;7.94;69.21;97193.34;1659547;85;20983;-65
2021/12/02 07:33:21;;;;;;;6.87;4.95;;;;;;;8.01;69.03;97198.59;1660244;85;21101;-64
2021/12/02 07:35:48;;;;;;;5.25;4.67;;;;;;;8.05;68.96;97205.94;1661069;85;21533;-69
2021/12/02 07:38:14;;;;;;;6.25;4.67;;;;;;;8.08;68.96;97210.79;1655106;85;21090;-66
2021/12/02 07:40:41;;;;;;;5.50;4.87;;;;;;;8.15;68.85;97207.31;1651162;86;21537;-68
2021/12/02 07:43:08;;;;;;;5.00;4.50;;;;;;;8.17;68.78;97207.41;1645341;86;21012;-68
2021/12/02 07:45:35;;;;;;;4.97;4.47;;;;;;;8.19;68.68;97204.53;1647742;86;20927;-72
2021/12/02 07:48:06;;;;;;;5.72;3.95;;;;;;;8.19;68.64;97211.98;1651701;86;21085;-72
2021/12/02 07:50:34;;;;;;;7.33;5.20;;;;;;;8.20;68.68;97218.91;1645746;86;21029;-65
2021/12/02 07:53:06;;;;;;;6.15;4.20;;;;;;;8.20;68.76;97220.74;1646561;86;21161;-64
2021/12/02 07:55:38;;;;;;;6.33;5.05;;;;;;;8.23;68.71;97223.80;1648857;86;21038;-65
2021/12/02 07:58:07;;;;;;;6.25;4.37;;;;;;;8.27;68.62;97226.34;1651099;86;21043;-67
2021/12/02 08:00:34;;;;;;;6.95;4.70;;;;;;;8.32;68.57;97225.70;1649940;86;20972;-67
2021/12/02 08:03:00;;;;;;;4.70;4.20;;;;;;;8.34;68.59;97225.80;1647197;86;21020;-77
2021/12/02 08:05:27;;;;;;;3.45;2.90;;;;;;;8.38;68.45;97232.83;1652146;86;21159;-74
2021/12/02 08:07:53;;;;;;;4.65;3.40;;;;;;;8.43;68.49;97238.30;1649607;86;20979;-68
2021/12/02 08:10:20;;;;;;;4.75;3.70;;;;;;;8.43;68.47;97234.33;1610743;87;21122;-66
2021/12/02 08:12:50;;;;;;;3.98;2.98;;;;;;;8.49;68.44;97236.14;1610892;87;21625;-68
2021/12/02 08:15:22;;;;;;;4.03;2.90;;;;;;;8.59;68.36;97236.50;1610062;87;21005;-71
2021/12/02 08:17:49;;;;;;;6.28;3.22;;;;;;;8.67;68.18;97235.75;1651472;86;21181;-66
2021/12/02 08:20:16;;;;;;;2.55;2.35;;;;;;;8.80;68.02;97240.67;1612215;87;21096;-67
2021/12/02 08:22:42;;;;;;;3.08;2.77;;;;;;;8.88;67.82;97234.61;1651886;86;20982;-61
2021/12/02 08:25:09;;;;;;;8.40;5.03;;;;;;;8.96;67.63;97237.52;1648113;86;21594;-71
2021/12/02 08:27:35;;;;;;;6.70;3.37;;;;;;;9.02;67.51;97238.00;1646811;86;21070;-72
2021/12/02 08:30:04;;;;;;;4.10;2.35;;;;;;;9.09;67.11;97247.53;1649809;86;21153;-63
2021/12/02 08:32:31;;;;;;;6.40;4.15;;;;;;;9.16;67.06;97251.45;1649857;86;20933;-63
2021/12/02 08:35:00;;;;;;;3.55;2.67;;;;;;;9.25;66.90;97255.48;1651640;86;21091;-61
2021/12/02 08:37:47;;;;;;;4.28;2.33;;;;;;;9.34;66.70;97254.17;1648032;85;20962;-69
2021/12/02 08:40:20;;;;;;;3.47;2.20;;;;;;;9.45;66.33;97260.12;1659552;85;21063;-68
2021/12/02 08:42:47;;;;;;;2.45;1.95;;;;;;;9.52;66.14;97255.56;1659343;85;21506;-67
2021/12/02 08:45:14;;;;;;;2.60;2.05;;;;;;;9.62;65.92;97261.19;1658253;85;21067;-64
2021/12/02 08:47:44;;;;;;;4.65;2.30;;;;;;;9.70;65.63;97266.23;1623023;87;21003;-68
2021/12/02 08:50:13;;;;;;;2.72;1.80;;;;;;;9.75;65.41;97273.02;1659458;85;21083;-67
2021/12/02 08:52:40;;;;;;;2.52;2.05;;;;;;;9.81;65.27;97272.16;1659571;85;20912;-66
2021/12/02 08:55:07;;;;;;;2.95;1.82;;;;;;;9.86;65.11;97285.59;1620544;87;21150;-66
2021/12/02 08:57:35;;;;;;;2.50;2.17;;;;;;;9.93;64.92;97276.25;1659595;85;20972;-66
2021/12/02 09:00:07;;;;;;;2.80;2.22;;;;;;;9.96;64.86;97266.49;1625434;87;21030;-65
2021/12/02 09:02:34;;;;;;;2.70;2.00;;;;;;;10.03;64.78;97261.12;1660651;85;20952;-63
2021/12/02 09:05:00;;;;;;;2.58;1.90;;;;;;;10.10;64.66;97258.70;1660559;85;21438;-66
2021/12/02 09:07:27;;;;;;;2.55;1.80;;;;;;;10.12;64.57;97250.50;1660141;85;21164;-67
2021/12/02 09:09:53;;;;;;;3.37;2.40;;;;;;;10.17;64.34;97248.83;1625123;87;20984;-67
2021/12/02 09:12:23;;;;;;;2.60;2.20;;;;;;;10.21;64.04;97244.72;1658913;85;20962;-68
2021/12/02 09:14:51;;;;;;;2.22;1.90;;;;;;;10.25;63.88;97246.39;1658879;85;21066;-67
2021/12/02 09:17:18;;;;;;;2.47;1.77;;;;;;;10.28;63.66;97249.44;1659751;85;21009;-66
2021/12/02 09:19:45;;;;;;;2.33;1.95;;;;;;;10.30;63.60;97242.55;1624803;87;22006;-66
2021/12/02 09:22:11;;;;;;;2.60;1.95;;;;;;;10.34;63.35;97239.77;1658230;85;21010;-67
2021/12/02 09:24:39;;;;;;;2.08;1.72;;;;;;;10.35;63.22;97233.43;1659786;85;21471;-66
2021/12/02 09:27:05;;;;;;;3.50;2.30;;;;;;;10.38;63.01;97248.39;1659887;85;21573;-66
2021/12/02 09:29:33;;;;;;;2.67;2.15;;;;;;;10.41;62.81;97244.48;1658902;85;21207;-66
2021/12/02 09:31:59;;;;;;;2.12;1.87;;;;;;;10.43;62.79;97239.74;1622901;87;21166;-64
2021/12/02 09:34:28;;;;;;;2.12;1.80;;;;;;;10.43;62.72;97241.07;1659613;85;21008;-63
2021/12/02 09:36:56;;;;;;;3.30;2.00;;;;;;;10.43;62.51;97225.94;1658673;85;20937;-66
2021/12/02 09:39:29;;;;;;;3.72;2.05;;;;;;;10.43;62.43;97236.58;1653622;85;21950;-63
2021/12/02 09:41:51;;;;;;;2.67;2.00;;;;;;;10.46;62.44;97235.31;1657102;86;20913;-66
2021/12/02 09:44:17;;;;;;;2.55;2.35;;;;;;;10.51;62.31;97240.77;1654870;85;21165;-65
2021/12/02 09:46:44;;;;;;;2.37;1.98;;;;;;;10.55;62.21;97235.31;1655053;85;21012;-65
2021/12/02 09:49:12;;;;;;;2.17;1.90;;;;;;;10.59;62.03;97234.33;1657312;85;20927;-65
2021/12/02 09:54:17;;;;;;;2.30;1.90;;;;;;;10.67;61.67;97222.88;1654849;85;21490;-65
2021/12/02 09:56:41;;;;;;;2.15;1.65;;;;;;;10.70;61.61;97225.09;1656420;86;21122;-64
2021/12/02 09:59:10;;;;;;;1.60;1.45;;;;;;;10.73;61.69;97220.66;1656385;85;20911;-64
2021/12/02 10:01:41;;;;;;;2.67;1.92;;;;;;;10.76;61.66;97216.22;1653522;85;21484;-69
2021/12/02 10:04:05;;;;;;;3.08;1.85;;;;;;;10.80;61.48;97217.89;1665368;85;20970;-67
2021/12/02 10:06:32;;;;;;;1.90;1.67;;;;;;;10.84;61.47;97229.20;1619569;87;21447;-67
2021/12/02 10:09:16;;;;;;;3.15;2.55;;;;;;;10.90;61.46;97222.96;1592462;89;21848;-67
2021/12/02 10:11:52;;;;;;;2.05;1.85;;;;;;;10.96;61.09;97227.39;1623550;87;21515;-68
2021/12/02 10:14:38;;;;;;;1.85;1.57;;;;;;;11.00;61.12;97226.42;1608854;88;20952;-70
2021/12/02 10:17:15;;;;;;;2.37;1.98;;;;;;;11.04;60.91;97210.28;1592171;88;21042;-72
2021/12/02 10:23:33;;;;;;;2.37;1.75;;;;;;;11.14;60.54;97215.34;1619113;88;21161;-68
2021/12/02 10:26:01;;;;;;;1.90;1.47;;;;;;;11.16;60.35;97207.94;1591255;90;21039;-66
2021/12/02 10:28:41;;;;;;;1.87;1.70;;;;;;;11.20;60.27;97212.81;1604121;87;21035;-74
2021/12/02 10:31:06;;;;;;;2.45;2.05;;;;;;;11.23;60.14;97223.82;1611766;88;21054;-70
2021/12/02 10:33:40;;;;;;;2.27;1.82;;;;;;;11.31;60.17;97220.02;1611558;89;21073;-66
2021/12/02 10:36:28;;;;;;;1.80;1.30;;;;;;;11.38;60.02;97230.84;1619561;87;21177;-74
2021/12/02 10:38:57;;;;;;;3.00;2.42;;;;;;;11.44;59.75;97227.27;1591105;88;21051;-67
2021/12/02 10:41:29;;;;;;;2.02;1.82;;;;;;;11.54;59.53;97213.38;1637441;86;21025;-70
2021/12/02 10:44:10;;;;;;;1.65;1.55;;;;;;;11.67;60.07;97218.48;1655459;86;20957;-73
2021/12/02 10:46:42;;;;;;;2.22;1.77;;;;;;;11.87;59.49;97218.16;1659431;86;20966;-73
2021/12/02 10:49:15;;;;;;;2.37;1.60;;;;;;;12.03;58.62;97218.27;1625184;87;22036;-71
2021/12/02 10:51:50;;;;;;;2.12;1.92;;;;;;;12.16;58.16;97214.53;1650578;86;20963;-72
2021/12/02 10:54:27;;;;;;;4.65;1.80;;;;;;;12.24;57.86;97202.99;1648383;86;20955;-70
2021/12/02 10:56:57;;;;;;;3.15;2.60;;;;;;;12.40;58.25;97210.78;1650870;86;21013;-70
2021/12/02 10:59:47;;;;;;;1.82;1.40;;;;;;;12.54;58.14;97212.11;1659636;86;21571;-70
2021/12/02 11:02:27;;;;;;;4.47;2.67;;;;;;;12.65;56.85;97215.78;1656433;86;22092;-72
2021/12/02 11:04:59;;;;;;;3.85;2.27;;;;;;;12.74;57.98;97209.05;1647053;86;20994;-73
2021/12/02 11:07:34;;;;;;;2.27;1.98;;;;;;;12.84;56.62;97202.04;1659410;86;21115;-73
2021/12/02 11:10:10;;;;;;;1.82;1.72;;;;;;;12.94;55.96;97209.41;1648210;86;20966;-74
2021/12/02 11:12:40;;;;;;;2.10;1.77;;;;;;;12.96;55.82;97192.62;1647007;86;21014;-75
2021/12/02 11:15:15;;;;;;;2.08;1.70;;;;;;;13.03;55.93;97186.63;1653756;86;21211;-69
2021/12/02 11:17:57;;;;;;;2.17;1.87;;;;;;;13.12;55.33;97177.19;1658732;86;20989;-69
2021/12/02 11:20:42;;;;;;;2.15;1.80;;;;;;;13.20;55.01;97178.12;1652836;86;21596;-69
2021/12/02 11:23:28;;;;;;;1.67;1.57;;;;;;;13.28;54.57;97175.06;1655441;86;21031;-69
2021/12/02 11:26:10;;;;;;;9.80;8.30;;;;;;;13.31;54.21;97173.77;1654098;86;20932;-65
2021/12/02 11:28:39;;;;;;;6.28;4.87;;;;;;;13.40;59.88;97181.13;1646978;86;21200;-66
2021/12/02 11:31:25;;;;;;;4.20;3.25;;;;;;;13.63;58.77;97187.63;1661391;86;21140;-69
2021/12/02 11:33:54;;;;;;;6.33;5.65;;;;;;;13.74;58.89;97193.14;1697643;83;20993;-64
2021/12/02 11:36:28;;;;;;;4.17;2.02;;;;;;;13.81;57.65;97191.91;1691210;83;21070;-68
2021/12/02 11:38:58;;;;;;;1.45;1.35;;;;;;;13.86;55.91;97193.84;1704531;83;21027;-67
2021/12/02 11:41:26;;;;;;;1.70;1.60;;;;;;;13.75;54.27;97188.06;1702157;83;21132;-67
2021/12/02 11:43:53;;;;;;;2.65;1.80;;;;;;;13.61;53.91;97195.08;1703755;83;21032;-68
2021/12/02 11:46:20;;;;;;;1.87;1.70;;;;;;;13.42;54.01;97185.72;1688726;83;21154;-69
2021/12/02 11:48:47;;;;;;;2.40;2.00;;;;;;;13.28;54.07;97184.41;1709776;83;21112;-67
2021/12/02 11:51:19;;;;;;;2.50;2.10;;;;;;;13.12;54.34;97190.54;1703609;83;21056;-68
2021/12/02 11:53:45;;;;;;;5.28;4.45;;;;;;;13.00;54.72;97197.27;1698634;83;21587;-67
2021/12/02 11:56:16;;;;;;;6.10;5.17;;;;;;;12.93;57.50;97193.12;1699931;83;21002;-65
2021/12/02 11:58:43;;;;;;;3.62;3.25;;;;;;;13.03;59.40;97200.49;1701867;83;21103;-67
2021/12/02 12:01:20;;;;;;;3.10;2.60;;;;;;;13.14;57.91;97205.00;1704225;83;20934;-69
2021/12/02 12:04:06;;;;;;;3.70;2.77;;;;;;;13.11;56.45;97202.29;1673023;83;21042;-67